sensor_id;sensor_type;location;lat;lon;timestamp;pressure;altitude;pressure_sealevel;temperature;humidity
30636;BME280;17400;52.392;9.750;2023-02-25T00:01:05;99309.53;;;4.62;100.00
30636;BME280;17400;52.392;9.750;2023-02-25T00:03:33;99316.59;;;4.70;100.00
30636;BME280;17400;52.392;9.750;2023-02-25T00:06:02;99312.25;;;4.69;100.00
30636;BME280;17400;52.392;9.750;2023-02-25T00:08:31;99312.63;;;4.65;100.00
30636;BME280;17400;52.392;9.750;2023-02-25T00:11:00;99313.91;;;4.70;100.00
30636;BME280;17400;52.392;9.750;2023-02-25T00:13:30;99309.84;;;4.74;100.00
30636;BME280;17400;52.392;9.750;2023-02-25T00:15:58;99325.88;;;4.67;100.00
30636;BME280;17400;52.392;9.750;2023-02-25T00:18:26;99313.69;;;4.64;100.00
30636;BME280;17400;52.392;9.750;2023-02-25T00:20:54;99312.63;;;4.65;100.00
30636;BME280;17400;52.392;9.750;2023-02-25T00:23:21;99312.16;;;4.55;100.00
30636;BME280;17400;52.392;9.750;2023-02-25T00:25:57;99316.09;;;4.59;100.00
30636;BME280;17400;52.392;9.750;2023-02-25T00:28:26;99315.66;;;4.56;100.00
30636;BME280;17400;52.392;9.750;2023-02-25T00:30:56;99322.03;;;4.55;100.00
30636;BME280;17400;52.392;9.750;2023-02-25T00:33:24;99320.06;;;4.63;100.00
30636;BME280;17400;52.392;9.750;2023-02-25T00:35:51;99327.84;;;4.58;100.00
30636;BME280;17400;52.392;9.750;2023-02-25T00:38:19;99320.06;;;4.63;100.00
30636;BME280;17400;52.392;9.750;2023-02-25T00:40:48;99331.09;;;4.54;100.00
30636;BME280;17400;52.392;9.750;2023-02-25T00:43:15;99339.00;;;4.62;100.00
30636;BME280;17400;52.392;9.750;2023-02-25T00:45:43;99318.34;;;4.56;100.00
30636;BME280;17400;52.392;9.750;2023-02-25T00:48:12;99336.06;;;4.57;100.00
30636;BME280;17400;52.392;9.750;2023-02-25T00:50:39;99355.91;;;4.62;100.00
30636;BME280;17400;52.392;9.750;2023-02-25T00:53:09;99356.72;;;4.63;100.00
30636;BME280;17400;52.392;9.750;2023-02-25T00:55:37;99355.66;;;4.57;100.00
30636;BME280;17400;52.392;9.750;2023-02-25T00:58:05;99364.28;;;4.53;100.00
30636;BME280;17400;52.392;9.750;2023-02-25T01:00:32;99369.97;;;4.64;100.00
30636;BME280;17400;52.392;9.750;2023-02-25T01:03:18;99388.16;;;4.69;100.00
30636;BME280;17400;52.392;9.750;2023-02-25T01:05:45;99386.06;;;4.64;100.00
30636;BME280;17400;52.392;9.750;2023-02-25T01:08:15;99386.22;;;4.63;100.00
30636;BME280;17400;52.392;9.750;2023-02-25T01:10:44;99391.59;;;4.63;100.00
30636;BME280;17400;52.392;9.750;2023-02-25T01:13:13;99384.84;;;4.67;100.00
30636;BME280;17400;52.392;9.750;2023-02-25T01:15:41;99388.53;;;4.66;100.00
30636;BME280;17400;52.392;9.750;2023-02-25T01:18:09;99381.44;;;4.58;100.00
30636;BME280;17400;52.392;9.750;2023-02-25T01:20:38;99380.63;;;4.58;100.00
30636;BME280;17400;52.392;9.750;2023-02-25T01:23:06;99388.84;;;4.56;100.00
30636;BME280;17400;52.392;9.750;2023-02-25T01:25:38;99386.41;;;4.61;100.00
30636;BME280;17400;52.392;9.750;2023-02-25T01:28:05;99389.34;;;4.66;100.00
30636;BME280;17400;52.392;9.750;2023-02-25T01:30:35;99390.56;;;4.64;100.00
30636;BME280;17400;52.392;9.750;2023-02-25T01:33:03;99388.16;;;4.69;100.00
30636;BME280;17400;52.392;9.750;2023-02-25T01:35:30;99390.09;;;4.60;100.00
30636;BME280;17400;52.392;9.750;2023-02-25T01:37:59;99396.31;;;4.61;100.00
30636;BME280;17400;52.392;9.750;2023-02-25T01:40:27;99396.06;;;4.56;100.00
30636;BME280;17400;52.392;9.750;2023-02-25T01:42:54;99401.47;;;4.62;100.00
30636;BME280;17400;52.392;9.750;2023-02-25T01:45:27;99409.97;;;4.66;100.00
30636;BME280;17400;52.392;9.750;2023-02-25T01:47:58;99405.91;;;4.70;100.00
30636;BME280;17400;52.392;9.750;2023-02-25T01:50:33;99402.00;;;4.73;100.00
30636;BME280;17400;52.392;9.750;2023-02-25T01:53:03;99401.00;;;4.74;100.00
30636;BME280;17400;52.392;9.750;2023-02-25T01:55:32;99401.66;;;4.82;100.00
30636;BME280;17400;52.392;9.750;2023-02-25T01:58:00;99405.19;;;4.83;100.00
30636;BME280;17400;52.392;9.750;2023-02-25T02:00:30;99412.06;;;4.71;100.00
30636;BME280;17400;52.392;9.750;2023-02-25T02:02:59;99416.69;;;4.55;100.00
30636;BME280;17400;52.392;9.750;2023-02-25T02:05:37;99411.47;;;4.54;100.00
30636;BME280;17400;52.392;9.750;2023-02-25T02:08:10;99419.38;;;4.40;100.00
30636;BME280;17400;52.392;9.750;2023-02-25T02:10:38;99419.13;;;4.35;100.00
30636;BME280;17400;52.392;9.750;2023-02-25T02:13:06;99433.69;;;4.47;100.00
30636;BME280;17400;52.392;9.750;2023-02-25T02:15:38;99420.31;;;4.47;100.00
30636;BME280;17400;52.392;9.750;2023-02-25T02:18:08;99426.00;;;4.59;100.00
30636;BME280;17400;52.392;9.750;2023-02-25T02:20:43;99426.75;;;4.53;100.00
30636;BME280;17400;52.392;9.750;2023-02-25T02:23:29;99428.53;;;4.46;100.00
30636;BME280;17400;52.392;9.750;2023-02-25T02:29:36;99439.41;;;4.44;100.00
30636;BME280;17400;52.392;9.750;2023-02-25T02:32:15;99446.75;;;4.36;100.00
30636;BME280;17400;52.392;9.750;2023-02-25T02:34:52;99446.63;;;4.44;100.00
30636;BME280;17400;52.392;9.750;2023-02-25T02:37:29;99450.22;;;4.51;100.00
30636;BME280;17400;52.392;9.750;2023-02-25T02:40:11;99446.53;;;4.52;100.00
30636;BME280;17400;52.392;9.750;2023-02-25T02:42:48;99450.13;;;4.44;100.00
30636;BME280;17400;52.392;9.750;2023-02-25T02:45:20;99453.75;;;4.52;100.00
30636;BME280;17400;52.392;9.750;2023-02-25T02:47:55;99460.56;;;4.54;100.00
30636;BME280;17400;52.392;9.750;2023-02-25T02:50:28;99451.06;;;4.52;100.00
30636;BME280;17400;52.392;9.750;2023-02-25T02:53:03;99462.59;;;4.52;100.00
30636;BME280;17400;52.392;9.750;2023-02-25T02:55:35;99457.78;;;4.62;100.00
30636;BME280;17400;52.392;9.750;2023-02-25T02:58:07;99463.53;;;4.59;100.00
30636;BME280;17400;52.392;9.750;2023-02-25T03:00:38;99465.25;;;4.67;100.00
30636;BME280;17400;52.392;9.750;2023-02-25T03:03:12;99461.19;;;4.71;100.00
30636;BME280;17400;52.392;9.750;2023-02-25T03:05:43;99472.25;;;4.68;100.00
30636;BME280;17400;52.392;9.750;2023-02-25T03:08:14;99463.59;;;4.66;100.00
30636;BME280;17400;52.392;9.750;2023-02-25T03:10:44;99473.47;;;4.65;100.00
30636;BME280;17400;52.392;9.750;2023-02-25T03:13:12;99478.84;;;4.65;100.00
30636;BME280;17400;52.392;9.750;2023-02-25T03:15:41;99471.25;;;4.69;100.00
30636;BME280;17400;52.392;9.750;2023-02-25T03:18:17;99476.34;;;4.64;100.00
30636;BME280;17400;52.392;9.750;2023-02-25T03:20:47;99480.81;;;4.57;100.00
30636;BME280;17400;52.392;9.750;2023-02-25T03:23:24;99483.09;;;4.60;100.00
30636;BME280;17400;52.392;9.750;2023-02-25T03:25:57;99484.50;;;4.56;100.00
30636;BME280;17400;52.392;9.750;2023-02-25T03:28:33;99490.31;;;4.59;100.00
30636;BME280;17400;52.392;9.750;2023-02-25T03:31:04;99485.41;;;4.63;100.00
30636;BME280;17400;52.392;9.750;2023-02-25T03:33:39;99492.63;;;4.62;100.00
30636;BME280;17400;52.392;9.750;2023-02-25T03:36:18;99488.94;;;4.63;100.00
30636;BME280;17400;52.392;9.750;2023-02-25T03:38:51;99505.00;;;4.48;100.00
30636;BME280;17400;52.392;9.750;2023-02-25T03:41:23;99508.75;;;4.47;100.00
30636;BME280;17400;52.392;9.750;2023-02-25T03:43:55;99501.50;;;4.48;100.00
30636;BME280;17400;52.392;9.750;2023-02-25T03:46:25;99519.16;;;4.57;100.00
30636;BME280;17400;52.392;9.750;2023-02-25T03:48:58;99516.09;;;4.60;100.00
30636;BME280;17400;52.392;9.750;2023-02-25T03:51:30;99519.22;;;4.64;100.00
30636;BME280;17400;52.392;9.750;2023-02-25T03:53:59;99522.41;;;4.53;100.00
30636;BME280;17400;52.392;9.750;2023-02-25T03:56:27;99526.66;;;4.47;100.00
30636;BME280;17400;52.392;9.750;2023-02-25T03:58:55;99530.25;;;4.54;100.00
30636;BME280;17400;52.392;9.750;2023-02-25T04:01:26;99531.75;;;4.57;100.00
30636;BME280;17400;52.392;9.750;2023-02-25T04:03:57;99529.34;;;4.62;100.00
30636;BME280;17400;52.392;9.750;2023-02-25T04:06:24;99531.53;;;4.58;100.00
30636;BME280;17400;52.392;9.750;2023-02-25T04:08:52;99533.69;;;4.48;100.00
30636;BME280;17400;52.392;9.750;2023-02-25T04:11:19;99546.25;;;4.47;100.00
30636;BME280;17400;52.392;9.750;2023-02-25T04:13:47;99548.16;;;4.54;100.00
30636;BME280;17400;52.392;9.750;2023-02-25T04:16:15;99551.13;;;4.59;100.00
30636;BME280;17400;52.392;9.750;2023-02-25T04:18:43;99559.25;;;4.65;100.00
30636;BME280;17400;52.392;9.750;2023-02-25T04:21:24;99563.59;;;4.66;100.00
30636;BME280;17400;52.392;9.750;2023-02-25T04:23:52;99556.97;;;4.62;100.00
30636;BME280;17400;52.392;9.750;2023-02-25T04:26:20;99566.00;;;4.61;100.00
30636;BME280;17400;52.392;9.750;2023-02-25T04:28:51;99572.75;;;4.57;100.00
30636;BME280;17400;52.392;9.750;2023-02-25T04:31:19;99575.34;;;4.50;100.00
30636;BME280;17400;52.392;9.750;2023-02-25T04:33:47;99577.28;;;4.42;100.00
30636;BME280;17400;52.392;9.750;2023-02-25T04:36:25;99590.16;;;4.31;100.00
30636;BME280;17400;52.392;9.750;2023-02-25T04:38:53;99580.06;;;4.19;100.00
30636;BME280;17400;52.392;9.750;2023-02-25T04:41:22;99589.41;;;4.23;100.00
30636;BME280;17400;52.392;9.750;2023-02-25T04:43:50;99581.25;;;4.31;100.00
30636;BME280;17400;52.392;9.750;2023-02-25T04:46:17;99579.34;;;4.40;100.00
30636;BME280;17400;52.392;9.750;2023-02-25T04:48:45;99583.78;;;4.47;100.00
30636;BME280;17400;52.392;9.750;2023-02-25T04:51:13;99586.16;;;4.57;100.00
30636;BME280;17400;52.392;9.750;2023-02-25T04:53:42;99583.94;;;4.61;100.00
30636;BME280;17400;52.392;9.750;2023-02-25T04:56:12;99581.38;;;4.53;100.00
30636;BME280;17400;52.392;9.750;2023-02-25T04:58:39;99582.38;;;4.52;100.00
30636;BME280;17400;52.392;9.750;2023-02-25T05:01:08;99586.75;;;4.53;100.00
30636;BME280;17400;52.392;9.750;2023-02-25T05:03:37;99576.72;;;4.61;100.00
30636;BME280;17400;52.392;9.750;2023-02-25T05:06:05;99576.91;;;4.60;100.00
30636;BME280;17400;52.392;9.750;2023-02-25T05:08:35;99573.22;;;4.61;100.00
30636;BME280;17400;52.392;9.750;2023-02-25T05:11:04;99578.59;;;4.61;100.00
30636;BME280;17400;52.392;9.750;2023-02-25T05:13:32;99581.09;;;4.47;100.00
30636;BME280;17400;52.392;9.750;2023-02-25T05:16:05;99581.16;;;4.39;100.00
30636;BME280;17400;52.392;9.750;2023-02-25T05:18:35;99568.53;;;4.48;100.00
30636;BME280;17400;52.392;9.750;2023-02-25T05:21:03;99581.38;;;4.53;100.00
30636;BME280;17400;52.392;9.750;2023-02-25T05:23:31;99581.19;;;4.54;100.00
30636;BME280;17400;52.392;9.750;2023-02-25T05:25:59;99587.75;;;4.52;100.00
30636;BME280;17400;52.392;9.750;2023-02-25T05:28:28;99585.78;;;4.60;100.00
30636;BME280;17400;52.392;9.750;2023-02-25T05:30:58;99589.03;;;4.56;100.00
30636;BME280;17400;52.392;9.750;2023-02-25T05:33:26;99601.44;;;4.57;100.00
30636;BME280;17400;52.392;9.750;2023-02-25T05:35:53;99592.34;;;4.43;100.00
30636;BME280;17400;52.392;9.750;2023-02-25T05:38:21;99603.94;;;4.43;100.00
30636;BME280;17400;52.392;9.750;2023-02-25T05:40:48;99603.34;;;4.48;100.00
30636;BME280;17400;52.392;9.750;2023-02-25T05:43:16;99603.53;;;4.31;100.00
30636;BME280;17400;52.392;9.750;2023-02-25T05:45:51;99610.44;;;4.26;100.00
30636;BME280;17400;52.392;9.750;2023-02-25T05:48:19;99608.16;;;4.23;100.00
30636;BME280;17400;52.392;9.750;2023-02-25T05:50:46;99602.41;;;4.11;100.00
30636;BME280;17400;52.392;9.750;2023-02-25T05:53:16;99634.28;;;4.21;100.00
30636;BME280;17400;52.392;9.750;2023-02-25T05:55:44;99623.50;;;3.91;100.00
30636;BME280;17400;52.392;9.750;2023-02-25T05:58:12;99632.47;;;3.98;100.00
30636;BME280;17400;52.392;9.750;2023-02-25T06:00:39;99637.50;;;4.01;100.00
30636;BME280;17400;52.392;9.750;2023-02-25T06:03:11;99644.16;;;4.05;100.00
30636;BME280;17400;52.392;9.750;2023-02-25T06:05:39;99650.22;;;3.99;100.00
30636;BME280;17400;52.392;9.750;2023-02-25T06:08:08;99663.59;;;3.99;100.00
30636;BME280;17400;52.392;9.750;2023-02-25T06:10:36;99670.44;;;4.02;100.00
30636;BME280;17400;52.392;9.750;2023-02-25T06:13:04;99675.50;;;3.96;100.00
30636;BME280;17400;52.392;9.750;2023-02-25T06:15:32;99674.97;;;4.01;100.00
30636;BME280;17400;52.392;9.750;2023-02-25T06:18:00;99681.16;;;4.02;100.00
30636;BME280;17400;52.392;9.750;2023-02-25T06:20:29;99691.06;;;4.01;100.00
30636;BME280;17400;52.392;9.750;2023-02-25T06:22:57;99699.59;;;3.96;100.00
30636;BME280;17400;52.392;9.750;2023-02-25T06:25:25;99709.13;;;3.99;100.00
30636;BME280;17400;52.392;9.750;2023-02-25T06:27:55;99707.94;;;4.02;100.00
30636;BME280;17400;52.392;9.750;2023-02-25T06:30:23;99709.00;;;3.92;100.00
30636;BME280;17400;52.392;9.750;2023-02-25T06:32:51;99714.66;;;3.97;100.00
30636;BME280;17400;52.392;9.750;2023-02-25T06:35:19;99714.22;;;4.09;100.00
30636;BME280;17400;52.392;9.750;2023-02-25T06:37:53;99724.34;;;4.22;100.00
30636;BME280;17400;52.392;9.750;2023-02-25T06:40:21;99717.06;;;4.15;100.00
30636;BME280;17400;52.392;9.750;2023-02-25T06:42:49;99727.47;;;4.10;100.00
30636;BME280;17400;52.392;9.750;2023-02-25T06:45:17;99734.47;;;4.11;100.00
30636;BME280;17400;52.392;9.750;2023-02-25T06:47:45;99731.53;;;4.06;100.00
30636;BME280;17400;52.392;9.750;2023-02-25T06:50:13;99733.22;;;3.99;100.00
30636;BME280;17400;52.392;9.750;2023-02-25T06:52:40;99732.53;;;4.05;100.00
30636;BME280;17400;52.392;9.750;2023-02-25T06:55:10;99737.88;;;4.05;100.00
30636;BME280;17400;52.392;9.750;2023-02-25T06:57:37;99743.25;;;4.05;100.00
30636;BME280;17400;52.392;9.750;2023-02-25T07:00:06;99746.00;;;3.89;100.00
30636;BME280;17400;52.392;9.750;2023-02-25T07:02:37;99751.13;;;3.75;100.00
30636;BME280;17400;52.392;9.750;2023-02-25T07:05:05;99753.72;;;3.83;100.00
30636;BME280;17400;52.392;9.750;2023-02-25T07:07:32;99766.97;;;3.85;100.00
30636;BME280;17400;52.392;9.750;2023-02-25T07:10:00;99760.13;;;3.82;100.00
30636;BME280;17400;52.392;9.750;2023-02-25T07:12:29;99770.84;;;3.74;100.00
30636;BME280;17400;52.392;9.750;2023-02-25T07:14:57;99778.56;;;3.69;100.00
30636;BME280;17400;52.392;9.750;2023-02-25T07:17:25;99769.81;;;3.83;100.00
30636;BME280;17400;52.392;9.750;2023-02-25T07:19:53;99774.28;;;3.91;100.00
30636;BME280;17400;52.392;9.750;2023-02-25T07:22:21;99784.56;;;3.79;100.00
30636;BME280;17400;52.392;9.750;2023-02-25T07:24:51;99782.00;;;3.86;100.00
30636;BME280;17400;52.392;9.750;2023-02-25T07:27:19;99782.81;;;3.95;100.00
30636;BME280;17400;52.392;9.750;2023-02-25T07:29:49;99792.03;;;3.92;100.00
30636;BME280;17400;52.392;9.750;2023-02-25T07:32:19;99788.34;;;3.93;100.00
30636;BME280;17400;52.392;9.750;2023-02-25T07:34:47;99792.16;;;3.99;100.00
30636;BME280;17400;52.392;9.750;2023-02-25T07:37:15;99794.00;;;3.98;100.00
30636;BME280;17400;52.392;9.750;2023-02-25T07:39:42;99793.81;;;4.00;100.00
30636;BME280;17400;52.392;9.750;2023-02-25T07:42:13;99795.81;;;3.98;100.00
30636;BME280;17400;52.392;9.750;2023-02-25T07:44:40;99787.47;;;4.01;100.00
30636;BME280;17400;52.392;9.750;2023-02-25T07:47:09;99811.72;;;3.99;100.00
30636;BME280;17400;52.392;9.750;2023-02-25T07:49:37;99805.47;;;4.07;100.00
30636;BME280;17400;52.392;9.750;2023-02-25T07:52:05;99810.88;;;3.99;100.00
30636;BME280;17400;52.392;9.750;2023-02-25T07:54:32;99810.84;;;4.07;100.00
30636;BME280;17400;52.392;9.750;2023-02-25T07:57:00;99806.75;;;4.20;100.00
30636;BME280;17400;52.392;9.750;2023-02-25T07:59:28;99810.63;;;4.17;100.00
30636;BME280;17400;52.392;9.750;2023-02-25T08:01:55;99812.13;;;4.20;100.00
30636;BME280;17400;52.392;9.750;2023-02-25T08:04:24;99810.81;;;4.15;100.00
30636;BME280;17400;52.392;9.750;2023-02-25T08:06:52;99805.16;;;4.10;100.00
30636;BME280;17400;52.392;9.750;2023-02-25T08:09:20;99808.16;;;4.07;100.00
30636;BME280;17400;52.392;9.750;2023-02-25T08:11:48;99814.25;;;4.01;100.00
30636;BME280;17400;52.392;9.750;2023-02-25T08:14:17;99818.00;;;3.83;100.00
30636;BME280;17400;52.392;9.750;2023-02-25T08:16:47;99817.56;;;4.03;100.00
30636;BME280;17400;52.392;9.750;2023-02-25T08:19:14;99808.06;;;4.24;100.00
30636;BME280;17400;52.392;9.750;2023-02-25T08:21:43;99810.88;;;4.30;98.24
30636;BME280;17400;52.392;9.750;2023-02-25T08:24:11;99811.56;;;4.24;96.25
30636;BME280;17400;52.392;9.750;2023-02-25T08:26:39;99818.47;;;4.19;95.77
30636;BME280;17400;52.392;9.750;2023-02-25T08:29:06;99828.13;;;4.28;96.20
30636;BME280;17400;52.392;9.750;2023-02-25T08:31:34;99830.56;;;4.38;96.04
30636;BME280;17400;52.392;9.750;2023-02-25T08:34:02;99833.66;;;4.49;96.47
30636;BME280;17400;52.392;9.750;2023-02-25T08:36:30;99831.22;;;4.63;94.85
30636;BME280;17400;52.392;9.750;2023-02-25T08:38:59;99832.16;;;4.70;93.19
30636;BME280;17400;52.392;9.750;2023-02-25T08:41:28;99832.66;;;4.74;91.11
30636;BME280;17400;52.392;9.750;2023-02-25T08:43:57;99833.19;;;4.69;88.44
30636;BME280;17400;52.392;9.750;2023-02-25T08:46:27;99835.63;;;4.56;89.06
30636;BME280;17400;52.392;9.750;2023-02-25T08:48:56;99835.34;;;4.50;88.84
30636;BME280;17400;52.392;9.750;2023-02-25T08:51:25;99840.31;;;4.54;88.35
30636;BME280;17400;52.392;9.750;2023-02-25T08:54:02;99842.84;;;4.55;85.91
30636;BME280;17400;52.392;9.750;2023-02-25T08:56:31;99854.41;;;4.56;84.50
30636;BME280;17400;52.392;9.750;2023-02-25T08:59:01;99849.22;;;4.54;85.81
30636;BME280;17400;52.392;9.750;2023-02-25T09:01:29;99850.94;;;4.47;83.94
30636;BME280;17400;52.392;9.750;2023-02-25T09:04:11;99854.16;;;4.42;85.19
30636;BME280;17400;52.392;9.750;2023-02-25T09:06:39;99851.28;;;4.44;85.62
30636;BME280;17400;52.392;9.750;2023-02-25T09:09:08;99870.00;;;4.29;84.38
30636;BME280;17400;52.392;9.750;2023-02-25T09:11:40;99866.03;;;4.16;86.70
30636;BME280;17400;52.392;9.750;2023-02-25T09:14:08;99869.13;;;4.28;88.16
30636;BME280;17400;52.392;9.750;2023-02-25T09:16:36;99874.88;;;4.25;88.48
30636;BME280;17400;52.392;9.750;2023-02-25T09:19:04;99882.09;;;4.16;87.53
30636;BME280;17400;52.392;9.750;2023-02-25T09:21:32;99885.13;;;4.13;87.52
30636;BME280;17400;52.392;9.750;2023-02-25T09:24:01;99892.00;;;3.76;88.24
30636;BME280;17400;52.392;9.750;2023-02-25T09:26:30;99898.47;;;3.90;88.37
30636;BME280;17400;52.392;9.750;2023-02-25T09:28:58;99906.66;;;3.89;88.54
30636;BME280;17400;52.392;9.750;2023-02-25T09:31:26;99898.56;;;3.65;88.21
30636;BME280;17400;52.392;9.750;2023-02-25T09:33:54;99907.06;;;3.69;90.08
30636;BME280;17400;52.392;9.750;2023-02-25T09:36:22;99907.75;;;3.71;92.40
30636;BME280;17400;52.392;9.750;2023-02-25T09:38:50;99912.38;;;3.86;93.37
30636;BME280;17400;52.392;9.750;2023-02-25T09:41:26;99926.44;;;3.88;93.98
30636;BME280;17400;52.392;9.750;2023-02-25T09:44:03;99933.13;;;3.92;94.26
30636;BME280;17400;52.392;9.750;2023-02-25T09:46:35;99930.66;;;3.74;96.04
30636;BME280;17400;52.392;9.750;2023-02-25T09:49:11;99932.66;;;3.80;98.04
30636;BME280;17400;52.392;9.750;2023-02-25T09:51:44;99943.53;;;3.78;98.47
30636;BME280;17400;52.392;9.750;2023-02-25T09:54:20;99946.69;;;3.82;100.00
30636;BME280;17400;52.392;9.750;2023-02-25T09:56:49;99954.88;;;3.97;100.00
30636;BME280;17400;52.392;9.750;2023-02-25T09:59:20;99957.88;;;3.94;100.00
30636;BME280;17400;52.392;9.750;2023-02-25T10:01:52;99960.50;;;4.02;100.00
30636;BME280;17400;52.392;9.750;2023-02-25T10:04:29;99965.41;;;3.90;100.00
30636;BME280;17400;52.392;9.750;2023-02-25T10:07:06;99968.91;;;3.99;100.00
30636;BME280;17400;52.392;9.750;2023-02-25T10:09:41;99969.44;;;3.94;100.00
30636;BME280;17400;52.392;9.750;2023-02-25T10:12:18;99990.41;;;3.58;100.00
30636;BME280;17400;52.392;9.750;2023-02-25T10:14:58;99995.56;;;3.67;100.00
30636;BME280;17400;52.392;9.750;2023-02-25T10:17:38;99986.88;;;3.74;100.00
30636;BME280;17400;52.392;9.750;2023-02-25T10:20:26;99989.69;;;3.80;100.00
30636;BME280;17400;52.392;9.750;2023-02-25T10:23:08;99998.38;;;3.91;100.00
30636;BME280;17400;52.392;9.750;2023-02-25T10:25:48;99985.16;;;3.81;99.17
30636;BME280;17400;52.392;9.750;2023-02-25T10:28:18;99998.06;;;3.86;99.18
30636;BME280;17400;52.392;9.750;2023-02-25T10:30:53;100000.41;;;3.80;99.80
30636;BME280;17400;52.392;9.750;2023-02-25T10:33:26;100011.44;;;3.86;99.35
30636;BME280;17400;52.392;9.750;2023-02-25T10:35:58;100015.13;;;3.84;99.57
30636;BME280;17400;52.392;9.750;2023-02-25T10:38:27;100014.81;;;3.88;99.75
30636;BME280;17400;52.392;9.750;2023-02-25T10:40:56;100017.13;;;3.91;98.38
30636;BME280;17400;52.392;9.750;2023-02-25T10:43:26;100028.50;;;3.84;96.47
30636;BME280;17400;52.392;9.750;2023-02-25T10:45:59;100028.19;;;3.79;94.31
30636;BME280;17400;52.392;9.750;2023-02-25T10:48:29;100027.88;;;3.82;93.89
30636;BME280;17400;52.392;9.750;2023-02-25T10:51:03;100029.72;;;3.74;92.74
30636;BME280;17400;52.392;9.750;2023-02-25T10:53:31;100029.50;;;3.83;91.47
30636;BME280;17400;52.392;9.750;2023-02-25T10:56:00;100030.16;;;3.94;90.33
30636;BME280;17400;52.392;9.750;2023-02-25T10:58:38;100029.53;;;3.92;88.10
30636;BME280;17400;52.392;9.750;2023-02-25T11:01:11;100019.44;;;4.02;87.54
30636;BME280;17400;52.392;9.750;2023-02-25T11:03:52;100028.44;;;4.17;86.39
30636;BME280;17400;52.392;9.750;2023-02-25T11:06:29;100017.03;;;4.24;87.38
30636;BME280;17400;52.392;9.750;2023-02-25T11:09:00;100024.03;;;4.33;85.34
30636;BME280;17400;52.392;9.750;2023-02-25T11:11:29;100032.56;;;4.37;87.57
30636;BME280;17400;52.392;9.750;2023-02-25T11:14:03;100037.50;;;4.56;85.66
30636;BME280;17400;52.392;9.750;2023-02-25T11:16:34;100044.19;;;4.60;81.62
30636;BME280;17400;52.392;9.750;2023-02-25T11:19:13;100045.22;;;4.51;79.07
30636;BME280;17400;52.392;9.750;2023-02-25T11:21:43;100054.63;;;4.55;86.61
30636;BME280;17400;52.392;9.750;2023-02-25T11:24:15;100055.56;;;4.62;78.34
30636;BME280;17400;52.392;9.750;2023-02-25T11:26:45;100054.22;;;4.66;80.49
30636;BME280;17400;52.392;9.750;2023-02-25T11:29:15;100059.50;;;4.43;79.61
30636;BME280;17400;52.392;9.750;2023-02-25T11:31:49;100057.38;;;4.30;80.73
30636;BME280;17400;52.392;9.750;2023-02-25T11:34:20;100061.88;;;4.38;84.16
30636;BME280;17400;52.392;9.750;2023-02-25T11:36:49;100071.94;;;4.28;83.09
30636;BME280;17400;52.392;9.750;2023-02-25T11:39:20;100066.25;;;4.31;84.53
30636;BME280;17400;52.392;9.750;2023-02-25T11:41:50;100073.94;;;4.34;85.56
30636;BME280;17400;52.392;9.750;2023-02-25T11:44:22;100062.69;;;4.39;82.78
30636;BME280;17400;52.392;9.750;2023-02-25T11:46:57;100081.16;;;4.25;80.78
30636;BME280;17400;52.392;9.750;2023-02-25T11:49:51;100086.34;;;4.27;79.32
30636;BME280;17400;52.392;9.750;2023-02-25T11:52:23;100087.66;;;4.31;78.11
30636;BME280;17400;52.392;9.750;2023-02-25T11:55:03;100093.34;;;4.36;75.67
30636;BME280;17400;52.392;9.750;2023-02-25T11:57:41;100095.59;;;4.16;70.31
30636;BME280;17400;52.392;9.750;2023-02-25T12:00:19;100095.94;;;3.96;73.53
30636;BME280;17400;52.392;9.750;2023-02-25T12:03:04;100103.31;;;3.94;74.29
30636;BME280;17400;52.392;9.750;2023-02-25T12:05:48;100111.50;;;3.93;75.22
30636;BME280;17400;52.392;9.750;2023-02-25T12:08:28;100112.84;;;3.89;77.20
30636;BME280;17400;52.392;9.750;2023-02-25T12:14:41;100118.72;;;3.84;78.44
30636;BME280;17400;52.392;9.750;2023-02-25T12:17:28;100135.63;;;3.68;80.24
30636;BME280;17400;52.392;9.750;2023-02-25T12:20:38;100130.25;;;3.84;81.76
30636;BME280;17400;52.392;9.750;2023-02-25T12:23:38;100122.91;;;3.95;81.70
30636;BME280;17400;52.392;9.750;2023-02-25T12:26:13;100126.75;;;4.00;81.47
30636;BME280;17400;52.392;9.750;2023-02-25T12:28:54;100129.59;;;3.99;80.98
30636;BME280;17400;52.392;9.750;2023-02-25T12:34:54;100136.59;;;4.16;77.82
30636;BME280;17400;52.392;9.750;2023-02-25T12:37:54;100134.56;;;4.27;79.38
30636;BME280;17400;52.392;9.750;2023-02-25T12:40:38;100141.63;;;4.11;77.10
30636;BME280;17400;52.392;9.750;2023-02-25T12:43:17;100139.63;;;4.13;76.22
30636;BME280;17400;52.392;9.750;2023-02-25T12:46:10;100145.97;;;4.12;75.82
30636;BME280;17400;52.392;9.750;2023-02-25T12:49:06;100136.25;;;4.11;73.52
30636;BME280;17400;52.392;9.750;2023-02-25T12:52:10;100140.78;;;4.27;73.37
30636;BME280;17400;52.392;9.750;2023-02-25T12:55:03;100144.44;;;4.43;70.87
30636;BME280;17400;52.392;9.750;2023-02-25T12:57:44;100151.81;;;4.24;70.49
30636;BME280;17400;52.392;9.750;2023-02-25T13:00:35;100152.66;;;4.16;68.20
30636;BME280;17400;52.392;9.750;2023-02-25T13:03:23;100164.41;;;4.15;66.82
30636;BME280;17400;52.392;9.750;2023-02-25T13:06:14;100163.56;;;4.15;67.96
30636;BME280;17400;52.392;9.750;2023-02-25T13:08:52;100185.50;;;4.19;67.69
30636;BME280;17400;52.392;9.750;2023-02-25T13:11:36;100188.19;;;4.10;68.57
30636;BME280;17400;52.392;9.750;2023-02-25T13:14:44;100188.84;;;4.04;69.71
30636;BME280;17400;52.392;9.750;2023-02-25T13:17:26;100193.53;;;3.94;71.20
30636;BME280;17400;52.392;9.750;2023-02-25T13:20:21;100201.91;;;3.82;73.54
30636;BME280;17400;52.392;9.750;2023-02-25T13:23:06;100198.72;;;3.87;74.37
30636;BME280;17400;52.392;9.750;2023-02-25T13:25:49;100197.03;;;3.86;73.90
30636;BME280;17400;52.392;9.750;2023-02-25T13:28:30;100190.38;;;3.98;73.66
30636;BME280;17400;52.392;9.750;2023-02-25T13:31:06;100201.38;;;3.95;72.16
30636;BME280;17400;52.392;9.750;2023-02-25T13:33:50;100209.63;;;4.10;72.07
30636;BME280;17400;52.392;9.750;2023-02-25T13:36:37;100202.09;;;4.22;70.79
30636;BME280;17400;52.392;9.750;2023-02-25T13:39:21;100206.44;;;4.31;71.23